createdAt,value
2018-02-07T00:02:06.125Z,6.40
2018-02-07T00:04:34.068Z,7.05
2018-02-07T00:07:01.910Z,6.82
2018-02-07T00:09:29.680Z,6.90
2018-02-07T00:11:57.507Z,7.30
2018-02-07T00:14:25.275Z,7.57
2018-02-07T00:16:53.116Z,7.40
2018-02-07T00:19:21.015Z,6.78
2018-02-07T00:21:48.838Z,7.53
2018-02-07T00:24:16.606Z,7.30
2018-02-07T00:26:44.472Z,6.53
2018-02-07T00:29:12.238Z,7.32
2018-02-07T00:31:40.204Z,6.95
2018-02-07T00:34:08.144Z,6.90
2018-02-07T00:36:36.199Z,7.57
2018-02-07T00:39:04.138Z,10.30
2018-02-07T00:41:31.927Z,6.70
2018-02-07T00:43:59.711Z,7.03
2018-02-07T00:46:27.524Z,7.55
2018-02-07T00:48:55.367Z,7.25
2018-02-07T00:51:23.272Z,7.20
2018-02-07T00:53:51.067Z,7.28
2018-02-07T00:56:18.926Z,7.50
2018-02-07T00:58:46.719Z,6.47
2018-02-07T01:01:14.546Z,7.37
2018-02-07T01:03:42.322Z,7.50
2018-02-07T01:06:10.103Z,7.60
2018-02-07T01:08:37.965Z,7.20
2018-02-07T01:11:05.748Z,8.90
2018-02-07T01:13:33.583Z,8.25
2018-02-07T01:16:01.524Z,7.30
2018-02-07T01:18:29.352Z,8.55
2018-02-07T01:20:57.283Z,7.00
2018-02-07T01:23:25.139Z,7.53
2018-02-07T01:25:52.939Z,7.18
2018-02-07T01:28:20.758Z,7.00
2018-02-07T01:30:48.519Z,7.68
2018-02-07T01:33:16.340Z,6.65
2018-02-07T01:35:44.071Z,7.28
2018-02-07T01:38:12.052Z,7.82
2018-02-07T01:40:39.901Z,7.75
2018-02-07T01:43:07.753Z,7.80
2018-02-07T01:45:35.627Z,7.80
2018-02-07T01:48:03.513Z,7.43
2018-02-07T01:50:31.273Z,7.70
2018-02-07T01:52:59.121Z,7.40
2018-02-07T01:55:26.921Z,7.80
2018-02-07T01:57:54.751Z,7.50
2018-02-07T02:00:22.548Z,8.13
2018-02-07T02:02:50.391Z,7.18
2018-02-07T02:05:18.126Z,7.40
2018-02-07T02:07:45.975Z,6.87
2018-02-07T02:10:13.735Z,6.78
2018-02-07T02:12:41.616Z,7.50
2018-02-07T02:15:09.353Z,6.65
2018-02-07T02:17:37.160Z,6.82
2018-02-07T02:20:04.968Z,7.25
2018-02-07T02:22:32.809Z,7.15
2018-02-07T02:25:00.570Z,7.22
2018-02-07T02:27:28.375Z,6.60
2018-02-07T02:29:56.118Z,7.20
2018-02-07T02:32:23.965Z,7.95
2018-02-07T02:34:51.695Z,6.57
2018-02-07T02:37:19.503Z,7.12
2018-02-07T02:39:47.338Z,6.30
2018-02-07T02:42:15.096Z,7.20
2018-02-07T02:44:42.927Z,7.93
2018-02-07T02:47:10.653Z,7.57
2018-02-07T02:49:38.500Z,7.00
2018-02-07T02:52:06.231Z,7.12
2018-02-07T02:54:34.100Z,7.05
2018-02-07T02:57:02.039Z,7.85
2018-02-07T02:59:29.820Z,6.78
2018-02-07T03:01:57.729Z,7.35
2018-02-07T03:04:25.502Z,7.12
2018-02-07T03:06:53.280Z,7.30
2018-02-07T03:09:21.132Z,7.55
2018-02-07T03:11:48.882Z,7.50
2018-02-07T03:14:16.707Z,6.93
2018-02-07T03:16:44.695Z,7.22
2018-02-07T03:19:12.489Z,6.93
2018-02-07T03:21:40.233Z,6.70
2018-02-07T03:24:08.028Z,6.22
2018-02-07T03:26:35.797Z,6.43
2018-02-07T03:29:03.602Z,7.28
2018-02-07T03:31:31.356Z,7.97
2018-02-07T03:33:59.196Z,8.52
2018-02-07T03:36:26.981Z,7.85
2018-02-07T03:38:54.792Z,7.57
2018-02-07T03:41:22.573Z,6.32
2018-02-07T03:43:50.411Z,6.80
2018-02-07T03:46:18.186Z,6.32
2018-02-07T03:48:45.977Z,6.85
2018-02-07T03:51:13.777Z,7.20
2018-02-07T03:53:41.603Z,6.35
2018-02-07T03:56:09.357Z,6.47
2018-02-07T03:58:37.291Z,7.22
2018-02-07T04:01:05.068Z,7.10
2018-02-07T04:03:32.904Z,7.10
2018-02-07T04:06:00.816Z,7.70
2018-02-07T04:08:28.632Z,7.35
2018-02-07T04:10:56.423Z,6.93
2018-02-07T04:13:24.240Z,7.28
2018-02-07T04:15:52.037Z,7.18
2018-02-07T04:18:20.012Z,7.57
2018-02-07T04:20:47.924Z,6.70
2018-02-07T04:23:15.684Z,6.87
2018-02-07T04:25:43.502Z,7.20
2018-02-07T04:28:11.301Z,7.00
2018-02-07T04:30:39.191Z,6.57
2018-02-07T04:33:06.984Z,6.65
2018-02-07T04:35:34.795Z,6.55
2018-02-07T04:38:02.561Z,7.00
2018-02-07T04:40:30.425Z,6.87
2018-02-07T04:42:58.281Z,6.60
2018-02-07T04:45:26.136Z,7.00
2018-02-07T04:47:53.895Z,7.37
2018-02-07T04:50:21.716Z,6.55
2018-02-07T04:52:49.501Z,6.82
2018-02-07T04:55:17.312Z,6.72
2018-02-07T04:57:45.225Z,6.90
2018-02-07T05:00:13.075Z,6.65
2018-02-07T05:02:41.019Z,6.47
2018-02-07T05:05:08.850Z,6.47
2018-02-07T05:07:36.641Z,6.80
2018-02-07T05:10:04.479Z,6.20
2018-02-07T05:12:32.248Z,7.43
2018-02-07T05:15:00.095Z,6.43
2018-02-07T05:17:28.035Z,6.47
2018-02-07T05:19:55.836Z,7.35
2018-02-07T05:22:23.636Z,6.62
2018-02-07T05:24:51.488Z,7.00
2018-02-07T05:27:19.235Z,7.25
2018-02-07T05:29:47.198Z,6.55
2018-02-07T05:32:15.236Z,6.35
2018-02-07T05:34:43.079Z,6.50
2018-02-07T05:37:10.892Z,6.35
2018-02-07T05:39:38.712Z,6.20
2018-02-07T05:42:06.508Z,7.43
2018-02-07T05:44:34.284Z,6.70
2018-02-07T05:47:02.103Z,6.62
2018-02-07T05:49:30.055Z,7.20
2018-02-07T05:51:57.849Z,7.00
2018-02-07T05:54:25.714Z,6.30
2018-02-07T05:56:53.468Z,7.10
2018-02-07T05:59:21.350Z,6.53
2018-02-07T06:01:49.142Z,6.65
2018-02-07T06:04:16.964Z,6.85
2018-02-07T06:06:44.756Z,6.82
2018-02-07T06:09:12.544Z,6.82
2018-02-07T06:11:40.381Z,6.12
2018-02-07T06:14:08.136Z,6.75
2018-02-07T06:16:35.963Z,6.05
2018-02-07T06:19:03.772Z,6.15
2018-02-07T06:21:31.635Z,7.82
2018-02-07T06:23:59.585Z,6.60
2018-02-07T06:26:27.420Z,6.93
2018-02-07T06:28:55.209Z,6.10
2018-02-07T06:31:23.092Z,6.93
2018-02-07T06:33:50.900Z,6.82
2018-02-07T06:36:18.787Z,6.00
2018-02-07T06:38:46.576Z,6.12
2018-02-07T06:41:14.381Z,6.90
2018-02-07T06:43:42.177Z,7.07
2018-02-07T06:46:09.988Z,19.87
2018-02-07T06:48:37.885Z,7.30
2018-02-07T06:51:05.815Z,7.00
2018-02-07T06:53:33.575Z,8.15
2018-02-07T06:56:01.404Z,7.50
2018-02-07T06:58:29.192Z,6.70
2018-02-07T07:00:57.024Z,7.00
2018-02-07T07:03:24.864Z,7.60
2018-02-07T07:05:52.698Z,6.65
2018-02-07T07:08:20.489Z,7.18
2018-02-07T07:10:48.386Z,8.10
2018-02-07T07:13:16.198Z,6.85
2018-02-07T07:15:44.037Z,7.90
2018-02-07T07:18:11.820Z,8.40
2018-02-07T07:20:39.792Z,7.82
2018-02-07T07:23:07.580Z,8.48
2018-02-07T07:25:35.590Z,7.95
2018-02-07T07:28:03.464Z,8.05
2018-02-07T07:30:31.352Z,9.27
2018-02-07T07:32:59.275Z,7.95
2018-02-07T07:35:27.136Z,8.23
2018-02-07T07:37:54.935Z,8.75
2018-02-07T07:40:22.768Z,8.18
2018-02-07T07:42:50.535Z,8.35
2018-02-07T07:45:18.324Z,8.70
2018-02-07T07:47:46.110Z,8.98
2018-02-07T07:50:13.892Z,9.40
2018-02-07T07:52:41.758Z,9.32
2018-02-07T07:58:40.912Z,9.05
2018-02-07T08:01:08.755Z,9.20
2018-02-07T08:03:36.548Z,8.80
2018-02-07T08:06:04.384Z,8.98
2018-02-07T08:08:32.249Z,8.80
2018-02-07T08:11:00.081Z,8.20
2018-02-07T08:13:27.917Z,8.57
2018-02-07T08:15:55.744Z,9.20
2018-02-07T08:18:23.565Z,9.18
2018-02-07T08:20:51.377Z,9.25
2018-02-07T08:23:19.193Z,9.55
2018-02-07T08:25:47.143Z,9.40
2018-02-07T08:28:14.917Z,9.25
2018-02-07T08:30:42.769Z,10.05
2018-02-07T08:33:10.561Z,8.90
2018-02-07T08:35:38.422Z,9.98
2018-02-07T08:38:06.255Z,10.50
2018-02-07T08:40:34.048Z,8.77
2018-02-07T08:43:02.036Z,9.32
2018-02-07T08:45:29.878Z,9.25
2018-02-07T08:47:57.706Z,9.23
2018-02-07T08:50:25.502Z,8.85
2018-02-07T08:52:53.368Z,10.13
2018-02-07T08:55:21.226Z,11.57
2018-02-07T08:57:49.076Z,8.63
2018-02-07T09:00:16.864Z,9.05
2018-02-07T09:02:44.708Z,10.57
2018-02-07T09:05:12.487Z,8.48
2018-02-07T09:07:40.318Z,9.45
2018-02-07T09:10:08.152Z,9.35
2018-02-07T09:12:36.001Z,9.05
2018-02-07T09:15:03.899Z,9.20
2018-02-07T09:17:31.814Z,8.52
2018-02-07T09:19:59.588Z,8.93
2018-02-07T09:22:27.399Z,8.55
2018-02-07T09:24:55.201Z,9.45
2018-02-07T09:27:23.036Z,9.70
2018-02-07T09:29:50.859Z,9.48
2018-02-07T09:32:18.695Z,9.27
2018-02-07T09:34:46.560Z,9.23
2018-02-07T09:37:14.401Z,9.33
2018-02-07T09:39:42.259Z,9.20
2018-02-07T09:42:10.103Z,10.45
2018-02-07T09:44:37.956Z,9.83
2018-02-07T09:47:05.784Z,10.10
2018-02-07T09:49:33.551Z,9.47
2018-02-07T09:52:01.379Z,10.10
2018-02-07T09:54:29.216Z,9.00
2018-02-07T09:56:57.070Z,9.87
2018-02-07T09:59:24.964Z,10.00
2018-02-07T10:01:52.818Z,10.37
2018-02-07T10:04:20.624Z,10.23
2018-02-07T10:06:48.438Z,9.90
2018-02-07T10:09:16.566Z,9.07
2018-02-07T10:11:44.384Z,9.40
2018-02-07T10:14:12.163Z,10.20
2018-02-07T10:16:40.062Z,9.87
2018-02-07T10:19:07.902Z,10.20
2018-02-07T10:21:36.003Z,7.93
2018-02-07T10:24:03.855Z,8.80
2018-02-07T10:26:31.939Z,9.07
2018-02-07T10:28:59.786Z,8.70
2018-02-07T10:31:27.546Z,8.10
2018-02-07T10:33:55.396Z,8.10
2018-02-07T10:36:23.204Z,8.17
2018-02-07T10:38:51.106Z,8.33
2018-02-07T10:41:18.985Z,8.97
2018-02-07T10:43:46.838Z,8.80
2018-02-07T10:46:14.612Z,8.93
2018-02-07T10:48:42.472Z,8.43
2018-02-07T10:51:10.252Z,8.60
2018-02-07T10:53:38.031Z,8.43
2018-02-07T10:56:05.876Z,8.50
2018-02-07T10:58:33.773Z,8.27
2018-02-07T11:01:01.561Z,9.57
2018-02-07T11:03:29.449Z,8.57
2018-02-07T11:05:57.189Z,8.67
2018-02-07T11:08:25.022Z,7.73
2018-02-07T11:10:52.799Z,6.63
2018-02-07T11:13:20.574Z,8.40
2018-02-07T11:15:48.328Z,8.50
2018-02-07T11:18:16.140Z,8.50
2018-02-07T11:20:43.910Z,8.50
2018-02-07T11:23:11.710Z,9.50
2018-02-07T11:25:39.452Z,8.70
2018-02-07T11:28:07.286Z,8.37
2018-02-07T11:30:35.065Z,7.60
2018-02-07T11:33:02.889Z,8.93
2018-02-07T11:35:30.673Z,8.53
2018-02-07T11:37:58.507Z,8.00
2018-02-07T11:40:26.265Z,6.60
2018-02-07T11:42:54.103Z,8.17
2018-02-07T11:45:21.860Z,8.57
2018-02-07T11:47:49.635Z,7.90
2018-02-07T11:50:18.196Z,7.60
2018-02-07T11:52:46.046Z,8.10
2018-02-07T11:55:13.840Z,7.93
2018-02-07T11:57:41.729Z,6.63
2018-02-07T12:00:09.498Z,7.40
2018-02-07T12:02:37.299Z,8.97
2018-02-07T12:05:05.099Z,8.67
2018-02-07T12:07:32.891Z,8.67
2018-02-07T12:10:00.851Z,8.73
2018-02-07T12:12:28.636Z,8.83
2018-02-07T12:14:56.440Z,7.87
2018-02-07T12:17:24.367Z,8.50
2018-02-07T12:19:52.206Z,8.77
2018-02-07T12:22:20.051Z,7.63
2018-02-07T12:24:47.844Z,9.97
2018-02-07T12:27:15.646Z,9.20
2018-02-07T12:29:44.441Z,9.50
2018-02-07T12:32:12.212Z,8.60
2018-02-07T12:34:40.132Z,8.60
2018-02-07T12:37:07.947Z,9.93
2018-02-07T12:39:35.808Z,8.87
2018-02-07T12:42:04.662Z,7.57
2018-02-07T12:44:32.569Z,7.00
2018-02-07T12:47:00.346Z,7.20
2018-02-07T12:49:28.156Z,7.47
2018-02-07T12:51:55.995Z,8.80
2018-02-07T12:54:24.007Z,7.83
2018-02-07T12:56:51.773Z,8.30
2018-02-07T12:59:19.591Z,7.40
2018-02-07T13:01:47.382Z,7.60
2018-02-07T13:04:15.195Z,7.97
2018-02-07T13:06:42.968Z,7.63
2018-02-07T13:09:10.783Z,8.10
2018-02-07T13:11:38.579Z,7.97
2018-02-07T13:14:06.407Z,8.63
2018-02-07T13:16:34.172Z,8.07
2018-02-07T13:19:02.007Z,7.97
2018-02-07T13:21:29.775Z,8.77
2018-02-07T13:23:57.647Z,8.37
2018-02-07T13:26:25.747Z,7.90
2018-02-07T13:28:53.659Z,8.57
2018-02-07T13:31:21.420Z,6.57
2018-02-07T13:33:49.224Z,8.50
2018-02-07T13:36:17.024Z,8.67
2018-02-07T13:38:44.860Z,8.90
2018-02-07T13:41:12.623Z,9.53
2018-02-07T13:43:40.460Z,8.90
2018-02-07T13:46:08.302Z,8.90
2018-02-07T13:48:36.080Z,8.17
2018-02-07T13:51:03.904Z,8.17
2018-02-07T13:53:31.688Z,9.30
2018-02-07T13:55:59.528Z,8.43
2018-02-07T13:58:27.328Z,8.37
2018-02-07T14:00:55.162Z,8.13
2018-02-07T14:03:22.955Z,8.87
2018-02-07T14:05:50.756Z,7.90
2018-02-07T14:08:18.620Z,6.93
2018-02-07T14:10:46.490Z,6.20
2018-02-07T14:13:14.255Z,6.47
2018-02-07T14:15:42.168Z,8.80
2018-02-07T14:18:09.939Z,7.50
2018-02-07T14:20:37.878Z,8.00
2018-02-07T14:23:05.975Z,7.23
2018-02-07T14:25:33.837Z,8.03
2018-02-07T14:28:01.666Z,7.20
2018-02-07T14:30:29.506Z,7.50
2018-02-07T14:33:03.023Z,8.63
2018-02-07T14:35:31.621Z,7.23
2018-02-07T14:37:59.358Z,8.77
2018-02-07T14:40:27.169Z,6.63
2018-02-07T14:42:54.940Z,7.23
2018-02-07T14:45:22.823Z,7.90
2018-02-07T14:47:50.635Z,7.73
2018-02-07T14:50:18.434Z,8.50
2018-02-07T14:52:46.312Z,8.90
2018-02-07T14:55:14.185Z,8.50
2018-02-07T14:57:42.929Z,7.90
2018-02-07T15:00:10.956Z,8.00
2018-02-07T15:02:38.791Z,7.10
2018-02-07T15:05:06.637Z,6.80
2018-02-07T15:07:34.431Z,8.10
2018-02-07T15:10:02.220Z,8.53
2018-02-07T15:12:30.113Z,8.43
2018-02-07T15:14:57.942Z,7.50
2018-02-07T15:17:25.740Z,7.50
2018-02-07T15:19:53.786Z,8.00
2018-02-07T15:22:21.580Z,7.60
2018-02-07T15:24:49.391Z,8.37
2018-02-07T15:27:17.176Z,7.67
2018-02-07T15:29:45.001Z,8.30
2018-02-07T15:32:12.858Z,8.53
2018-02-07T15:34:40.700Z,7.10
2018-02-07T15:37:08.515Z,7.17
2018-02-07T15:39:36.280Z,7.73
2018-02-07T15:42:04.104Z,7.70
2018-02-07T15:44:31.845Z,7.33
2018-02-07T15:46:59.668Z,8.17
2018-02-07T15:49:27.464Z,6.97
2018-02-07T15:51:55.299Z,8.03
2018-02-07T15:54:23.017Z,7.23
2018-02-07T15:56:50.867Z,7.73
2018-02-07T15:59:18.619Z,7.87
2018-02-07T16:01:46.458Z,7.60
2018-02-07T16:04:14.306Z,8.10
2018-02-07T16:06:42.169Z,7.43
2018-02-07T16:09:10.007Z,8.20
2018-02-07T16:11:37.872Z,8.63
2018-02-07T16:14:05.659Z,8.10
2018-02-07T16:16:33.496Z,8.27
2018-02-07T16:19:01.269Z,8.13
2018-02-07T16:21:29.139Z,8.33
2018-02-07T16:23:57.086Z,8.23
2018-02-07T16:26:24.927Z,7.43
2018-02-07T16:28:52.744Z,8.50
2018-02-07T16:31:20.583Z,8.30
2018-02-07T16:33:48.398Z,7.63
2018-02-07T16:36:16.295Z,7.87
2018-02-07T16:38:44.088Z,9.83
2018-02-07T16:41:11.957Z,8.73
2018-02-07T16:43:39.801Z,9.37
2018-02-07T16:46:07.655Z,8.63
2018-02-07T16:48:35.441Z,8.40
2018-02-07T16:51:03.277Z,8.50
2018-02-07T16:53:31.069Z,8.30
2018-02-07T16:55:58.958Z,8.30
2018-02-07T16:58:26.705Z,8.17
2018-02-07T17:00:54.529Z,8.00
2018-02-07T17:03:22.400Z,7.73
2018-02-07T17:05:50.263Z,8.17
2018-02-07T17:08:18.050Z,8.27
2018-02-07T17:10:45.874Z,9.10
2018-02-07T17:13:13.617Z,7.13
2018-02-07T17:15:41.526Z,7.90
2018-02-07T17:18:09.312Z,7.47
2018-02-07T17:20:37.091Z,8.20
2018-02-07T17:23:04.934Z,8.20
2018-02-07T17:25:32.757Z,8.57
2018-02-07T17:28:00.616Z,8.00
2018-02-07T17:30:28.417Z,8.63
2018-02-07T17:32:56.257Z,8.50
2018-02-07T17:35:24.019Z,8.47
2018-02-07T17:37:51.919Z,9.00
2018-02-07T17:40:19.709Z,8.20
2018-02-07T17:42:47.572Z,8.97
2018-02-07T17:45:15.350Z,8.30
2018-02-07T17:47:43.175Z,7.90
2018-02-07T17:50:11.009Z,8.43
2018-02-07T17:52:38.835Z,8.60
2018-02-07T17:55:06.635Z,8.20
2018-02-07T17:57:34.468Z,8.00
2018-02-07T18:00:02.268Z,8.50
2018-02-07T18:02:30.139Z,8.03
2018-02-07T18:04:57.996Z,8.75
2018-02-07T18:07:25.857Z,7.40
2018-02-07T18:09:53.600Z,8.07
2018-02-07T18:12:21.414Z,8.40
2018-02-07T18:14:49.175Z,9.32
2018-02-07T18:17:16.970Z,8.27
2018-02-07T18:19:44.739Z,8.20
2018-02-07T18:22:12.544Z,7.93
2018-02-07T18:24:40.300Z,9.07
2018-02-07T18:27:08.218Z,8.05
2018-02-07T18:29:36.005Z,7.45
2018-02-07T18:32:03.866Z,8.05
2018-02-07T18:34:31.696Z,8.00
2018-02-07T18:36:59.495Z,7.75
2018-02-07T18:39:27.261Z,8.80
2018-02-07T18:41:55.026Z,9.15
2018-02-07T18:44:22.782Z,8.55
2018-02-07T18:46:50.614Z,8.00
2018-02-07T18:49:18.447Z,7.85
2018-02-07T18:51:46.242Z,8.50
2018-02-07T18:54:14.083Z,9.20
2018-02-07T18:56:41.932Z,7.95
2018-02-07T18:59:09.703Z,8.88
2018-02-07T19:01:37.648Z,8.77
2018-02-07T19:04:05.449Z,8.57
2018-02-07T19:06:33.243Z,8.00
2018-02-07T19:09:01.103Z,9.00
2018-02-07T19:11:28.883Z,8.90
2018-02-07T19:13:56.682Z,10.35
2018-02-07T19:16:24.581Z,9.43
2018-02-07T19:18:52.372Z,9.98
2018-02-07T19:21:20.240Z,9.70
2018-02-07T19:23:48.094Z,7.97
2018-02-07T19:26:15.923Z,9.27
2018-02-07T19:28:43.719Z,9.82
2018-02-07T19:31:11.480Z,8.65
2018-02-07T19:33:39.403Z,9.57
2018-02-07T19:36:07.259Z,9.27
2018-02-07T19:38:35.112Z,9.55
2018-02-07T19:41:02.876Z,8.52
2018-02-07T19:43:30.714Z,9.20
2018-02-07T19:45:58.505Z,8.30
2018-02-07T19:48:26.387Z,9.60
2018-02-07T19:50:54.246Z,9.57
2018-02-07T19:53:22.172Z,9.63
2018-02-07T19:55:49.976Z,8.93
2018-02-07T19:58:17.824Z,8.70
2018-02-07T20:00:45.595Z,8.70
2018-02-07T20:03:13.481Z,9.27
2018-02-07T20:05:41.308Z,8.65
2018-02-07T20:08:09.151Z,8.95
2018-02-07T20:10:36.925Z,8.93
2018-02-07T20:13:04.753Z,8.10
2018-02-07T20:15:32.560Z,9.20
2018-02-07T20:18:00.386Z,9.63
2018-02-07T20:20:28.243Z,8.95
2018-02-07T20:22:56.122Z,8.07
2018-02-07T20:25:23.943Z,9.05
2018-02-07T20:27:51.854Z,9.10
2018-02-07T20:30:19.691Z,8.50
2018-02-07T20:32:47.579Z,9.60
2018-02-07T20:35:15.348Z,9.00
2018-02-07T20:37:43.163Z,9.48
2018-02-07T20:40:10.953Z,9.85
2018-02-07T20:42:38.782Z,8.95
2018-02-07T20:45:06.655Z,9.75
2018-02-07T20:47:34.375Z,9.68
2018-02-07T20:50:02.284Z,9.50
2018-02-07T20:52:30.022Z,9.75
2018-02-07T20:54:57.869Z,10.05
2018-02-07T20:57:25.628Z,9.70
2018-02-07T20:59:53.456Z,9.43
2018-02-07T21:02:21.260Z,9.75
2018-02-07T21:04:49.122Z,9.10
2018-02-07T21:07:16.892Z,9.27
2018-02-07T21:09:44.742Z,10.95
2018-02-07T21:12:12.556Z,9.32
2018-02-07T21:14:40.428Z,9.70
2018-02-07T21:17:08.215Z,10.52
2018-02-07T21:19:36.135Z,10.40
2018-02-07T21:22:03.953Z,9.77
2018-02-07T21:24:31.988Z,9.45
2018-02-07T21:26:59.787Z,8.88
2018-02-07T21:29:27.648Z,9.85
2018-02-07T21:31:55.448Z,9.10
2018-02-07T21:34:23.267Z,9.80
2018-02-07T21:36:51.087Z,9.13
2018-02-07T21:39:18.930Z,9.32
2018-02-07T21:41:46.719Z,9.90
2018-02-07T21:44:14.600Z,9.35
2018-02-07T21:46:42.434Z,9.73
2018-02-07T21:49:10.358Z,9.30
2018-02-07T21:51:38.226Z,9.70
2018-02-07T21:54:06.050Z,10.50
2018-02-07T21:56:33.941Z,10.35
2018-02-07T21:59:01.791Z,31.50
2018-02-07T22:01:29.624Z,33.08
2018-02-07T22:03:57.459Z,28.17
2018-02-07T22:06:25.284Z,29.58
2018-02-07T22:08:53.155Z,15.93
2018-02-07T22:11:21.064Z,13.88
2018-02-07T22:13:48.906Z,10.75
2018-02-07T22:16:16.691Z,11.55
2018-02-07T22:18:44.528Z,10.30
2018-02-07T22:21:12.310Z,10.35
2018-02-07T22:23:40.144Z,10.20
2018-02-07T22:26:07.948Z,11.18
2018-02-07T22:28:35.811Z,11.18
2018-02-07T22:31:03.697Z,11.25
2018-02-07T22:33:31.555Z,9.40
2018-02-07T22:35:59.459Z,9.57
2018-02-07T22:38:27.262Z,10.65
2018-02-07T22:40:55.058Z,9.68
2018-02-07T22:43:22.796Z,9.80
2018-02-07T22:45:50.585Z,9.77
2018-02-07T22:48:18.360Z,9.80
2018-02-07T22:50:46.144Z,10.90
2018-02-07T22:53:13.865Z,9.90
2018-02-07T22:55:41.660Z,9.68
2018-02-07T22:58:09.408Z,9.25
2018-02-07T23:00:37.239Z,10.93
2018-02-07T23:03:04.996Z,9.45
2018-02-07T23:05:32.830Z,9.88
2018-02-07T23:08:00.572Z,9.75
2018-02-07T23:10:28.370Z,10.15
2018-02-07T23:12:56.121Z,10.75
2018-02-07T23:15:23.951Z,8.82
2018-02-07T23:17:51.694Z,9.40
2018-02-07T23:20:19.477Z,9.10
2018-02-07T23:22:47.231Z,10.52
2018-02-07T23:25:15.150Z,11.05
2018-02-07T23:27:42.900Z,10.07
2018-02-07T23:30:10.743Z,11.27
2018-02-07T23:32:38.476Z,9.35
2018-02-07T23:35:06.261Z,9.10
2018-02-07T23:37:34.110Z,9.07
2018-02-07T23:40:01.888Z,10.23
2018-02-07T23:42:29.677Z,9.60
2018-02-07T23:44:57.474Z,10.88
2018-02-07T23:47:25.231Z,10.07
2018-02-07T23:49:53.091Z,9.88
2018-02-07T23:52:20.837Z,9.43
2018-02-07T23:54:48.681Z,10.10
2018-02-07T23:57:16.428Z,10.30
2018-02-07T23:59:44.217Z,9.45
